createdAt,value
2023-04-14T00:00:48.173Z,12.65
2023-04-14T00:03:15.592Z,11.60
2023-04-14T00:05:42.963Z,9.07
2023-04-14T00:08:10.114Z,12.25
2023-04-14T00:10:37.175Z,15.40
2023-04-14T00:13:04.345Z,12.77
2023-04-14T00:15:31.504Z,11.50
2023-04-14T00:17:58.668Z,9.43
2023-04-14T00:20:25.946Z,9.80
2023-04-14T00:22:52.999Z,11.23
2023-04-14T00:25:20.114Z,13.20
2023-04-14T00:27:47.281Z,12.00
2023-04-14T00:30:15.339Z,10.50
2023-04-14T00:32:42.494Z,6.00
2023-04-14T00:35:09.856Z,14.82
2023-04-14T00:37:36.990Z,9.48
2023-04-14T00:40:04.300Z,10.70
2023-04-14T00:42:32.343Z,12.40
2023-04-14T00:44:59.482Z,10.35
2023-04-14T00:47:27.219Z,8.13
2023-04-14T00:49:54.409Z,8.88
2023-04-14T00:52:24.299Z,15.68
2023-04-14T00:54:51.621Z,12.07
2023-04-14T00:57:18.862Z,17.60
2023-04-14T01:02:52.905Z,13.85
2023-04-14T01:05:24.883Z,8.55
2023-04-14T01:07:52.844Z,11.73
2023-04-14T01:11:07.513Z,9.43
2023-04-14T01:14:05.788Z,8.65
2023-04-14T01:16:47.382Z,10.93
2023-04-14T01:19:40.955Z,12.15
2023-04-14T01:22:23.238Z,8.90
2023-04-14T01:25:30.859Z,7.75
2023-04-14T01:28:39.452Z,6.95
2023-04-14T01:31:13.033Z,8.63
2023-04-14T01:34:17.470Z,8.93
2023-04-14T01:37:10.109Z,9.13
2023-04-14T01:39:42.293Z,8.60
2023-04-14T01:42:18.759Z,7.85
2023-04-14T01:44:53.054Z,11.00
2023-04-14T01:47:23.007Z,8.10
2023-04-14T01:49:54.121Z,7.60
2023-04-14T01:52:23.206Z,10.93
2023-04-14T01:54:53.199Z,9.38
2023-04-14T01:57:23.211Z,8.55
2023-04-14T01:59:53.853Z,10.88
2023-04-14T02:02:23.688Z,10.10
2023-04-14T02:04:52.376Z,10.45
2023-04-14T02:07:22.327Z,7.20
2023-04-14T02:09:52.104Z,10.90
2023-04-14T02:12:21.628Z,10.63
2023-04-14T02:14:51.459Z,8.85
2023-04-14T02:17:21.946Z,7.18
2023-04-14T02:19:50.536Z,10.48
2023-04-14T02:22:17.870Z,9.52
2023-04-14T02:24:44.909Z,6.70
2023-04-14T02:27:19.412Z,8.93
2023-04-14T02:29:53.034Z,8.50
2023-04-14T02:32:26.322Z,11.30
2023-04-14T02:35:02.372Z,12.10
2023-04-14T02:37:38.076Z,9.80
2023-04-14T02:40:14.457Z,8.93
2023-04-14T02:42:46.950Z,10.55
2023-04-14T02:45:19.955Z,7.38
2023-04-14T02:47:51.442Z,12.77
2023-04-14T02:50:19.615Z,9.57
2023-04-14T02:52:51.821Z,9.70
2023-04-14T02:55:21.162Z,8.77
2023-04-14T02:57:50.414Z,11.70
2023-04-14T03:00:18.704Z,7.78
2023-04-14T03:02:47.502Z,11.32
2023-04-14T03:05:15.041Z,6.93
2023-04-14T03:07:47.861Z,9.60
2023-04-14T03:10:17.965Z,9.32
2023-04-14T03:12:47.226Z,8.32
2023-04-14T03:15:14.773Z,11.30
2023-04-14T03:17:43.633Z,8.98
2023-04-14T03:20:12.994Z,10.10
2023-04-14T03:22:42.634Z,7.22
2023-04-14T03:25:12.594Z,12.07
2023-04-14T03:27:41.506Z,6.85
2023-04-14T03:30:13.497Z,11.18
2023-04-14T03:32:42.650Z,9.32
2023-04-14T03:35:13.314Z,12.13
2023-04-14T03:37:42.187Z,9.10
2023-04-14T03:40:11.484Z,8.90
2023-04-14T03:42:39.425Z,9.93
2023-04-14T03:45:07.199Z,12.60
2023-04-14T03:47:34.367Z,9.07
2023-04-14T03:50:05.296Z,7.32
2023-04-14T03:52:35.782Z,7.68
2023-04-14T03:55:07.055Z,10.52
2023-04-14T03:57:35.852Z,11.75
2023-04-14T04:00:05.606Z,8.27
2023-04-14T04:02:34.089Z,12.98
2023-04-14T04:05:02.143Z,12.10
2023-04-14T04:07:32.459Z,12.60
2023-04-14T04:10:01.029Z,11.98
2023-04-14T04:12:29.185Z,10.68
2023-04-14T04:14:56.496Z,7.88
2023-04-14T04:17:25.094Z,8.32
2023-04-14T04:19:55.055Z,8.70
2023-04-14T04:22:24.315Z,9.50
2023-04-14T04:24:52.613Z,11.93
2023-04-14T04:27:27.737Z,11.70
2023-04-14T04:29:57.298Z,10.38
2023-04-14T04:32:24.700Z,10.50
2023-04-14T04:34:54.033Z,8.63
2023-04-14T04:37:22.266Z,8.93
2023-04-14T04:39:49.451Z,12.02
2023-04-14T04:42:16.883Z,13.15
2023-04-14T04:44:44.028Z,9.73
2023-04-14T04:47:13.166Z,7.75
2023-04-14T04:49:40.328Z,6.70
2023-04-14T04:52:07.582Z,9.65
2023-04-14T04:54:34.941Z,8.73
2023-04-14T04:57:02.124Z,9.63
2023-04-14T04:59:29.411Z,10.75
2023-04-14T05:01:56.776Z,9.88
2023-04-14T05:04:24.136Z,9.88
2023-04-14T05:06:52.317Z,12.73
2023-04-14T05:09:19.373Z,10.15
2023-04-14T05:11:46.646Z,8.55
2023-04-14T05:14:13.649Z,11.43
2023-04-14T05:16:40.859Z,11.35
2023-04-14T05:19:07.934Z,9.73
2023-04-14T05:21:35.077Z,7.05
2023-04-14T05:24:03.200Z,10.75
2023-04-14T05:26:51.994Z,11.25
2023-04-14T05:29:17.588Z,9.80
2023-04-14T05:31:44.862Z,11.00
2023-04-14T05:34:12.055Z,11.82
2023-04-14T05:36:39.201Z,13.18
2023-04-14T05:39:06.679Z,10.55
2023-04-14T05:41:33.702Z,11.10
2023-04-14T05:44:01.394Z,8.82
2023-04-14T05:46:28.879Z,10.95
2023-04-14T05:48:57.144Z,8.13
2023-04-14T05:51:24.469Z,12.48
2023-04-14T05:53:51.719Z,11.50
2023-04-14T05:56:18.890Z,9.20
2023-04-14T05:58:46.039Z,11.43
2023-04-14T06:01:13.159Z,8.90
2023-04-14T06:03:41.252Z,8.48
2023-04-14T06:06:09.069Z,13.60
2023-04-14T06:08:36.390Z,10.38
2023-04-14T06:11:03.880Z,7.30
2023-04-14T06:13:33.033Z,7.10
2023-04-14T06:16:02.130Z,6.85
2023-04-14T06:18:29.308Z,10.85
2023-04-14T06:20:56.477Z,11.70
2023-04-14T06:23:25.073Z,11.48
2023-04-14T06:26:38.243Z,11.05
2023-04-14T06:29:07.782Z,8.32
2023-04-14T06:31:35.258Z,9.65
2023-04-14T06:34:02.506Z,10.23
2023-04-14T06:36:29.626Z,10.30
2023-04-14T06:38:58.352Z,6.65
2023-04-14T06:41:25.630Z,10.52
2023-04-14T06:44:00.542Z,8.30
2023-04-14T06:46:36.581Z,9.20
2023-04-14T06:49:04.210Z,15.02
2023-04-14T06:51:32.924Z,9.10
2023-04-14T06:54:00.537Z,8.88
2023-04-14T06:56:27.791Z,11.63
2023-04-14T06:58:54.998Z,16.38
2023-04-14T07:01:22.192Z,6.35
2023-04-14T07:03:49.342Z,8.90
2023-04-14T07:06:19.076Z,12.13
2023-04-14T07:08:47.145Z,15.10
2023-04-14T07:11:14.161Z,10.38
2023-04-14T07:13:42.196Z,7.70
2023-04-14T07:16:09.448Z,10.85
2023-04-14T07:18:37.074Z,11.30
2023-04-14T07:21:04.235Z,13.27
2023-04-14T07:23:31.473Z,10.45
2023-04-14T07:26:00.097Z,13.45
2023-04-14T07:28:28.493Z,10.88
2023-04-14T07:30:56.494Z,15.52
2023-04-14T07:33:24.854Z,12.85
2023-04-14T07:36:02.052Z,11.13
2023-04-14T07:38:30.717Z,9.18
2023-04-14T07:40:57.875Z,7.43
2023-04-14T07:43:25.022Z,7.45
2023-04-14T07:45:53.516Z,13.07
2023-04-14T07:48:21.843Z,14.70
2023-04-14T07:50:50.219Z,16.60
2023-04-14T07:53:17.701Z,23.67
2023-04-14T07:55:44.834Z,13.10
2023-04-14T07:58:15.790Z,17.83
2023-04-14T08:00:43.762Z,14.27
2023-04-14T08:03:11.012Z,25.17
2023-04-14T08:05:38.300Z,20.98
2023-04-14T08:08:05.725Z,26.40
2023-04-14T08:10:32.790Z,14.43
2023-04-14T08:13:01.569Z,16.65
2023-04-14T08:15:32.517Z,12.80
2023-04-14T08:17:59.746Z,12.15
2023-04-14T08:20:27.252Z,12.07
2023-04-14T08:22:56.825Z,16.35
2023-04-14T08:25:26.697Z,21.00
2023-04-14T08:27:53.796Z,22.33
2023-04-14T08:30:20.981Z,16.30
2023-04-14T08:32:48.089Z,18.25
2023-04-14T08:35:37.236Z,19.92
2023-04-14T08:38:02.632Z,12.25
2023-04-14T08:40:37.615Z,12.27
2023-04-14T08:43:05.949Z,10.18
2023-04-14T08:45:34.089Z,12.05
2023-04-14T08:48:02.650Z,12.48
2023-04-14T08:50:43.535Z,13.02
2023-04-14T08:53:10.886Z,22.85
2023-04-14T08:55:42.212Z,21.88
2023-04-14T08:58:13.104Z,14.88
2023-04-14T09:00:40.563Z,13.13
2023-04-14T09:03:09.650Z,12.95
2023-04-14T09:05:37.651Z,14.85
2023-04-14T09:08:04.913Z,15.30
2023-04-14T09:10:32.338Z,14.30
2023-04-14T09:13:00.565Z,19.63
2023-04-14T09:15:29.290Z,13.70
2023-04-14T09:17:56.835Z,12.23
2023-04-14T09:20:38.105Z,16.77
2023-04-14T09:23:12.427Z,19.20
2023-04-14T09:25:40.857Z,14.63
2023-04-14T09:28:08.364Z,12.52
2023-04-14T09:30:35.509Z,17.63
2023-04-14T09:33:07.847Z,14.30
2023-04-14T09:35:49.475Z,17.45
2023-04-14T09:38:33.799Z,12.82
2023-04-14T09:41:01.690Z,14.30
2023-04-14T09:43:29.540Z,21.45
2023-04-14T09:45:58.226Z,14.95
2023-04-14T09:48:26.220Z,15.52
2023-04-14T09:51:02.090Z,13.27
2023-04-14T09:53:33.980Z,13.60
2023-04-14T09:56:03.593Z,13.52
2023-04-14T09:58:33.580Z,13.10
2023-04-14T10:01:02.948Z,19.45
2023-04-14T10:03:39.275Z,13.38
2023-04-14T10:06:25.350Z,8.43
2023-04-14T10:08:57.316Z,16.58
2023-04-14T10:11:26.114Z,17.73
2023-04-14T10:13:58.800Z,12.63
2023-04-14T10:16:26.921Z,11.18
2023-04-14T10:18:55.072Z,13.25
2023-04-14T10:21:25.071Z,11.82
2023-04-14T10:23:52.952Z,14.13
2023-04-14T10:26:21.006Z,16.40
2023-04-14T10:28:53.578Z,15.23
2023-04-14T10:31:36.783Z,12.80
2023-04-14T10:34:14.260Z,14.63
2023-04-14T10:36:42.955Z,15.93
2023-04-14T10:39:11.855Z,21.98
2023-04-14T10:41:48.443Z,13.05
2023-04-14T10:44:29.838Z,17.67
2023-04-14T10:46:57.749Z,18.25
2023-04-14T10:49:29.664Z,15.95
2023-04-14T10:52:20.024Z,17.85
2023-04-14T10:54:53.734Z,16.40
2023-04-14T10:59:57.895Z,14.25
2023-04-14T11:02:32.470Z,23.88
2023-04-14T11:05:04.619Z,14.68
2023-04-14T11:07:38.507Z,22.63
2023-04-14T11:10:18.132Z,17.60
2023-04-14T11:12:47.342Z,17.85
2023-04-14T11:15:16.582Z,14.15
2023-04-14T11:17:45.240Z,15.13
2023-04-14T11:20:19.675Z,18.67
2023-04-14T11:22:49.798Z,16.25
2023-04-14T11:25:21.377Z,17.02
2023-04-14T11:27:50.380Z,16.92
2023-04-14T11:30:19.221Z,21.98
2023-04-14T11:32:54.290Z,18.25
2023-04-14T11:35:24.515Z,21.13
2023-04-14T11:37:56.287Z,20.52
2023-04-14T11:40:25.516Z,17.08
2023-04-14T11:42:57.629Z,20.27
2023-04-14T11:45:32.210Z,17.52
2023-04-14T11:48:02.041Z,15.70
2023-04-14T11:50:32.843Z,19.17
2023-04-14T11:53:01.044Z,17.80
2023-04-14T11:55:28.878Z,15.98
2023-04-14T11:57:59.640Z,17.48
2023-04-14T12:00:28.412Z,18.48
2023-04-14T12:02:56.861Z,16.58
2023-04-14T12:05:34.597Z,20.60
2023-04-14T12:08:07.689Z,12.65
2023-04-14T12:10:39.343Z,17.75
2023-04-14T12:13:12.044Z,19.17
2023-04-14T12:15:43.147Z,19.98
2023-04-14T12:18:14.073Z,17.73
2023-04-14T12:21:02.474Z,21.58
2023-04-14T12:23:29.617Z,15.88
2023-04-14T12:25:57.277Z,15.63
2023-04-14T12:28:29.681Z,19.80
2023-04-14T12:31:01.810Z,18.48
2023-04-14T12:33:30.082Z,15.02
2023-04-14T12:36:07.587Z,21.23
2023-04-14T12:38:35.153Z,18.30
2023-04-14T12:41:02.418Z,15.25
2023-04-14T12:43:34.925Z,11.88
2023-04-14T12:46:05.866Z,17.35
2023-04-14T12:48:47.139Z,16.00
2023-04-14T12:51:20.999Z,17.20
2023-04-14T12:53:50.656Z,14.68
2023-04-14T12:56:22.884Z,17.10
2023-04-14T12:58:51.521Z,16.48
2023-04-14T13:01:22.815Z,14.85
2023-04-14T13:03:52.805Z,17.95
2023-04-14T13:06:24.614Z,14.63
2023-04-14T13:08:56.686Z,14.38
2023-04-14T13:11:24.742Z,14.20
2023-04-14T13:13:56.022Z,16.98
2023-04-14T13:16:26.272Z,14.68
2023-04-14T13:18:54.871Z,20.80
2023-04-14T13:21:21.907Z,18.67
2023-04-14T13:23:48.979Z,15.75
2023-04-14T13:26:16.147Z,15.48
2023-04-14T13:28:43.301Z,20.85
2023-04-14T13:31:13.426Z,19.65
2023-04-14T13:33:40.699Z,20.48
2023-04-14T13:36:08.111Z,19.83
2023-04-14T13:38:35.342Z,18.88
2023-04-14T13:41:03.367Z,27.30
2023-04-14T13:43:30.917Z,19.98
2023-04-14T13:45:58.850Z,16.85
2023-04-14T13:48:27.704Z,13.77
2023-04-14T13:50:56.158Z,18.60
2023-04-14T13:53:23.437Z,14.30
2023-04-14T13:55:50.657Z,17.35
2023-04-14T13:58:17.791Z,17.10
2023-04-14T14:00:44.859Z,17.40
2023-04-14T14:03:12.486Z,14.70
2023-04-14T14:05:40.064Z,19.70
2023-04-14T14:08:07.295Z,14.30
2023-04-14T14:10:34.436Z,20.17
2023-04-14T14:13:02.012Z,18.80
2023-04-14T14:15:29.251Z,18.42
2023-04-14T14:17:56.501Z,18.33
2023-04-14T14:20:24.316Z,20.08
2023-04-14T14:22:51.813Z,23.10
2023-04-14T14:25:20.996Z,25.52
2023-04-14T14:27:50.464Z,20.13
2023-04-14T14:30:17.547Z,22.05
2023-04-14T14:32:44.632Z,21.35
2023-04-14T14:35:12.205Z,21.23
2023-04-14T14:37:41.210Z,15.88
2023-04-14T14:40:08.975Z,13.23
2023-04-14T14:42:36.588Z,14.85
2023-04-14T14:45:04.192Z,16.08
2023-04-14T14:47:32.043Z,16.17
2023-04-14T14:50:03.407Z,15.70
2023-04-14T14:52:33.057Z,16.63
2023-04-14T14:55:00.279Z,14.00
2023-04-14T14:57:27.937Z,22.38
2023-04-14T14:59:55.803Z,16.67
2023-04-14T15:02:23.282Z,17.88
2023-04-14T15:04:50.575Z,13.48
2023-04-14T15:07:18.246Z,19.27
2023-04-14T15:09:50.036Z,14.70
2023-04-14T15:12:17.860Z,17.20
2023-04-14T15:14:45.513Z,19.90
2023-04-14T15:17:12.615Z,14.60
2023-04-14T15:19:40.224Z,22.27
2023-04-14T15:22:08.682Z,15.10
2023-04-14T15:24:35.822Z,24.38
2023-04-14T15:27:03.681Z,18.23
2023-04-14T15:29:31.758Z,18.95
2023-04-14T15:31:58.986Z,21.45
2023-04-14T15:34:26.457Z,17.58
2023-04-14T15:36:53.655Z,20.45
2023-04-14T15:39:21.112Z,19.50
2023-04-14T15:41:50.535Z,17.48
2023-04-14T15:44:18.980Z,17.50
2023-04-14T15:46:46.583Z,17.33
2023-04-14T15:49:13.772Z,18.90
2023-04-14T15:51:40.959Z,18.00
2023-04-14T15:54:08.078Z,18.23
2023-04-14T15:56:35.859Z,16.55
2023-04-14T15:59:03.057Z,16.60
2023-04-14T16:01:30.194Z,21.60
2023-04-14T16:03:57.359Z,15.55
2023-04-14T16:06:24.458Z,15.32
2023-04-14T16:08:51.671Z,18.80
2023-04-14T16:11:19.547Z,24.33
2023-04-14T16:13:46.669Z,18.13
2023-04-14T16:16:15.478Z,18.38
2023-04-14T16:18:42.786Z,18.95
2023-04-14T16:21:10.159Z,15.70
2023-04-14T16:23:37.225Z,22.30
2023-04-14T16:26:04.590Z,22.25
2023-04-14T16:28:31.896Z,18.02
2023-04-14T16:31:03.283Z,15.65
2023-04-14T16:33:32.910Z,19.02
2023-04-14T16:36:04.463Z,15.90
2023-04-14T16:38:32.055Z,24.88
2023-04-14T16:41:00.778Z,25.73
2023-04-14T16:43:28.360Z,18.10
2023-04-14T16:46:05.825Z,16.42
2023-04-14T16:48:33.484Z,19.25
2023-04-14T16:51:05.185Z,20.40
2023-04-14T16:53:32.920Z,22.08
2023-04-14T16:56:04.866Z,17.95
2023-04-14T16:58:32.313Z,21.50
2023-04-14T17:01:00.009Z,17.73
2023-04-14T17:03:27.284Z,14.57
2023-04-14T17:05:54.992Z,19.63
2023-04-14T17:08:22.351Z,15.20
2023-04-14T17:10:49.795Z,18.20
2023-04-14T17:13:17.171Z,16.60
2023-04-14T17:15:58.427Z,17.98
2023-04-14T17:18:33.828Z,18.83
2023-04-14T17:21:01.241Z,19.30
2023-04-14T17:23:28.264Z,19.00
2023-04-14T17:25:57.841Z,23.83
2023-04-14T17:28:27.033Z,27.27
2023-04-14T17:30:54.466Z,17.70
2023-04-14T17:33:22.431Z,18.48
2023-04-14T17:35:49.567Z,14.73
2023-04-14T17:38:16.866Z,16.23
2023-04-14T17:40:44.036Z,17.60
2023-04-14T17:43:11.142Z,20.17
2023-04-14T17:45:40.325Z,16.83
2023-04-14T17:48:08.694Z,17.33
2023-04-14T17:50:36.151Z,16.45
2023-04-14T17:53:04.730Z,17.52
2023-04-14T17:55:32.062Z,19.17
2023-04-14T17:58:00.532Z,17.70
2023-04-14T18:00:29.633Z,19.00
2023-04-14T18:02:56.828Z,18.17
2023-04-14T18:05:24.392Z,19.70
2023-04-14T18:07:51.725Z,20.00
2023-04-14T18:10:18.918Z,19.88
2023-04-14T18:12:46.257Z,16.73
2023-04-14T18:15:15.784Z,18.48
2023-04-14T18:17:43.996Z,18.13
2023-04-14T18:20:16.397Z,18.15
2023-04-14T18:22:44.010Z,25.20
2023-04-14T18:25:11.301Z,20.38
2023-04-14T18:30:15.421Z,21.70
2023-04-14T18:32:43.451Z,22.35
2023-04-14T18:35:10.793Z,15.85
2023-04-14T18:37:47.724Z,20.63
2023-04-14T18:40:19.924Z,16.63
2023-04-14T18:42:50.040Z,19.63
2023-04-14T18:45:17.753Z,18.38
2023-04-14T18:47:50.183Z,23.35
2023-04-14T18:50:32.070Z,21.52
2023-04-14T18:53:00.264Z,22.90
2023-04-14T18:55:45.667Z,23.25
2023-04-14T18:58:14.297Z,22.20
2023-04-14T19:00:48.148Z,24.75
2023-04-14T19:05:47.579Z,19.83
2023-04-14T19:11:11.273Z,17.27
2023-04-14T19:16:24.721Z,29.50
2023-04-14T19:18:52.738Z,21.10
2023-04-14T19:21:19.889Z,24.00
2023-04-14T19:23:46.964Z,21.60
2023-04-14T19:26:14.187Z,27.33
2023-04-14T19:28:42.707Z,24.55
2023-04-14T19:31:09.904Z,26.20
2023-04-14T19:33:38.242Z,22.33
2023-04-14T19:36:13.075Z,28.27
2023-04-14T19:38:40.520Z,22.17
2023-04-14T19:41:09.152Z,19.30
2023-04-14T19:43:36.227Z,14.25
2023-04-14T19:46:05.411Z,21.02
2023-04-14T19:48:33.484Z,24.75
2023-04-14T19:51:02.279Z,17.30
2023-04-14T19:53:29.527Z,16.88
2023-04-14T19:55:58.443Z,24.65
2023-04-14T19:58:27.854Z,22.70
2023-04-14T20:00:59.108Z,18.85
2023-04-14T20:03:26.951Z,22.42
2023-04-14T20:05:57.028Z,20.88
2023-04-14T20:08:25.626Z,21.98
2023-04-14T20:10:54.470Z,16.08
2023-04-14T20:13:23.069Z,22.88
2023-04-14T20:15:54.210Z,27.10
2023-04-14T20:18:22.935Z,25.13
2023-04-14T20:20:50.556Z,21.40
2023-04-14T20:23:17.731Z,23.88
2023-04-14T20:25:45.845Z,20.95
2023-04-14T20:28:14.134Z,23.63
2023-04-14T20:30:42.073Z,27.40
2023-04-14T20:33:09.390Z,24.80
2023-04-14T20:35:40.683Z,28.38
2023-04-14T20:38:07.914Z,24.75
2023-04-14T20:40:35.592Z,22.92
2023-04-14T20:43:02.783Z,21.77
2023-04-14T20:45:30.198Z,16.63
2023-04-14T20:47:57.500Z,23.13
2023-04-14T20:50:24.806Z,25.92
2023-04-14T20:52:52.008Z,22.98
2023-04-14T20:55:19.703Z,20.50
2023-04-14T20:57:48.167Z,26.35
2023-04-14T21:00:17.095Z,24.88
2023-04-14T21:02:44.933Z,21.50
2023-04-14T21:05:12.897Z,22.95
2023-04-14T21:07:40.452Z,22.45
2023-04-14T21:10:10.769Z,22.83
2023-04-14T21:14:57.746Z,21.05
2023-04-14T21:15:47.589Z,22.05
2023-04-14T21:18:13.326Z,24.17
2023-04-14T21:20:40.423Z,24.55
2023-04-14T21:23:07.553Z,30.75
2023-04-14T21:25:35.486Z,25.85
2023-04-14T21:28:02.696Z,26.73
2023-04-14T21:30:29.781Z,27.63
2023-04-14T21:32:57.320Z,28.33
2023-04-14T21:35:24.811Z,31.23
2023-04-14T21:37:51.959Z,24.58
2023-04-14T21:40:19.438Z,29.70
2023-04-14T21:42:46.826Z,25.63
2023-04-14T21:45:14.395Z,24.50
2023-04-14T21:47:42.205Z,25.80
2023-04-14T21:50:09.912Z,27.73
2023-04-14T21:52:37.745Z,24.75
2023-04-14T21:55:05.227Z,33.47
2023-04-14T21:57:43.578Z,31.77
2023-04-14T22:00:18.137Z,26.25
2023-04-14T22:02:45.894Z,18.42
2023-04-14T22:05:16.416Z,21.55
2023-04-14T22:07:43.551Z,27.27
2023-04-14T22:10:12.251Z,28.77
2023-04-14T22:12:42.864Z,28.85
2023-04-14T22:15:10.941Z,27.90
2023-04-14T22:17:39.120Z,27.02
2023-04-14T22:20:06.900Z,21.13
2023-04-14T22:22:36.985Z,18.63
2023-04-14T22:25:05.005Z,16.63
2023-04-14T22:27:34.134Z,16.65
2023-04-14T22:30:02.182Z,21.65
2023-04-14T22:32:29.280Z,12.80
2023-04-14T22:34:56.615Z,18.38
2023-04-14T22:37:23.694Z,15.90
2023-04-14T22:39:50.741Z,17.20
2023-04-14T22:42:17.800Z,16.55
2023-04-14T22:44:44.952Z,20.88
2023-04-14T22:47:12.215Z,17.50
2023-04-14T22:49:39.382Z,18.80
2023-04-14T22:52:06.947Z,15.88
2023-04-14T22:54:34.474Z,19.88
2023-04-14T22:57:01.585Z,18.50
2023-04-14T22:59:28.586Z,27.33
2023-04-14T23:01:56.088Z,19.58
2023-04-14T23:04:25.378Z,18.95
2023-04-14T23:06:52.570Z,16.70
2023-04-14T23:09:19.566Z,22.23
2023-04-14T23:11:47.144Z,20.48
2023-04-14T23:14:14.228Z,16.63
2023-04-14T23:16:41.369Z,15.35
2023-04-14T23:19:08.641Z,19.05
2023-04-14T23:21:35.693Z,14.73
2023-04-14T23:24:02.849Z,17.00
2023-04-14T23:26:29.923Z,15.73
2023-04-14T23:28:57.009Z,13.25
2023-04-14T23:31:24.223Z,19.17
2023-04-14T23:33:53.113Z,13.80
2023-04-14T23:36:20.668Z,14.80
2023-04-14T23:38:47.860Z,13.25
2023-04-14T23:41:15.203Z,15.15
2023-04-14T23:43:42.519Z,18.77
2023-04-14T23:46:09.800Z,17.70
2023-04-14T23:48:36.903Z,18.90
2023-04-14T23:51:17.602Z,15.93
2023-04-14T23:53:46.596Z,18.60
2023-04-14T23:56:13.768Z,13.27
2023-04-14T23:58:40.914Z,13.52
